Airfield :
LOGIN :

Register | Disclaimer

   EN    FR    IT 

 










Legend :    VFR   Marginal VFR   IFR   Intensive IFR   Very Intensive IFR
Visi :
Ceiling :
>= 8 km
>= 3000ft
5 to 8 km
1000 to 3000 ft
1500m to 5 km
500 to 1000 ft
800 to 1500m
200 to 500 ft
< 800m
< 200 ft
Symbols :   Thunderstorms  Fog  Heavy snow  Heavy precipitations  Wind > 20 kt
SIGMETs :     Misc.  Thunderstorms  Icing  Turbulence  Mountain Waves  Volcanic Ashes






- Airport Elevation : 174 ft
- IATA code : RYG


ENRY - Moss , Rygge

CURRENT METAR :
  • 090350Z AUTO 11007KT 9999NDV SCT061/// BKN088/// 06/03 Q1006

EXPIRED METARs :
  • 090320Z AUTO 11008KT 9999NDV FEW043/// OVC068/// 05/03 Q1007
  • 090250Z AUTO 11008KT 9999NDV FEW037/// SCT045/// 05/03 Q1007 REUP
  • 090220Z AUTO 11008KT 9999NDV -DZ FEW072/// 05/03 Q1007
  • 090150Z AUTO 10007KT 9999NDV FEW048/// 05/02 Q1007
  • 090120Z AUTO 11008KT 9999NDV FEW098/// 05/03 Q1008

TAF COR TAF ENRY
Valid from the 09 at 00:00 until the 10 at 00:00 UTC


0900/0924 12008KT 9999 FEW030 BKN050
BECMG 0904/0906 -RA BKN012
TEMPO 0907/0918 4000 RADZ BKN004
BECMG 0915/0917 3000 BR BKN002
TEMPO 0920/0924 0500 FG VV001



MET'MAP, your aeronautical weather chart ! - Copyright ORBIFLY December 2007 - Disclaimer

ORBIFLY MET'MAP TEAM :

Programming & Development : Alexandra Zaïnal
Concept & original design : Baudouin d'Aumeries
Assistance for programming : Marc-Olivier Méhu
Technical & hardware support : Manuel Goepfert

Contact : metmap@orbifly.com




SOURCES & CREDITS :

   NOAA